Time;durP1;ratioP1;P1;durP2;ratioP2;P2;SDS_P1;SDS_P2;PMS_P1;PMS_P2;Temp;Humidity;BMP_temperature;BMP_pressure;BME280_temperature;BME280_humidity;BME280_pressure;Samples;Min_cycle;Max_cycle;Signal;HPM_P1;HPM_P2
2021/12/13 00:00:12;;;;;;;100.93;41.37;;;9.40;99.90;;;;;;5040283;28;20463;-57
2021/12/13 00:02:48;;;;;;;94.30;39.87;;;9.40;99.90;;;;;;5040773;28;20184;-58
2021/12/13 00:05:25;;;;;;;95.60;40.10;;;9.40;99.90;;;;;;5039627;28;20219;-58
2021/12/13 00:08:00;;;;;;;85.03;37.63;;;9.40;99.90;;;;;;5037203;28;20249;-57
2021/12/13 00:10:55;;;;;;;90.83;40.10;;;9.40;99.90;;;;;;5033115;28;20219;-57
2021/12/13 00:13:33;;;;;;;99.33;41.50;;;9.40;99.90;;;;;;5038451;28;20301;-57
2021/12/13 00:16:05;;;;;;;101.43;40.87;;;9.40;99.90;;;;;;5041441;28;20215;-59
2021/12/13 00:18:43;;;;;;;84.87;38.37;;;9.40;99.90;;;;;;5041054;28;20223;-58
2021/12/13 00:21:23;;;;;;;85.63;37.20;;;9.40;99.90;;;;;;5039951;28;20707;-58
2021/12/13 00:23:57;;;;;;;89.03;38.90;;;9.40;99.90;;;;;;5029999;28;20196;-59
2021/12/13 00:26:37;;;;;;;83.73;36.77;;;9.40;99.90;;;;;;5040928;28;20192;-58
2021/12/13 00:29:33;;;;;;;88.77;41.50;;;9.40;99.90;;;;;;5026165;28;20231;-58
2021/12/13 00:32:17;;;;;;;89.67;37.30;;;9.40;99.90;;;;;;5038057;28;20207;-59
2021/12/13 00:35:12;;;;;;;90.00;39.43;;;9.40;99.90;;;;;;5039635;28;20240;-57
2021/12/13 00:37:45;;;;;;;94.77;40.83;;;9.40;99.90;;;;;;5041551;28;20643;-58
2021/12/13 00:40:19;;;;;;;94.37;39.17;;;9.40;99.90;;;;;;5039569;28;20232;-59
2021/12/13 00:42:51;;;;;;;98.53;40.23;;;9.40;99.90;;;;;;5028794;28;20307;-59
2021/12/13 00:45:23;;;;;;;98.63;41.70;;;9.40;99.90;;;;;;5039372;28;20658;-57
2021/12/13 00:47:50;;;;;;;93.17;40.53;;;9.40;99.90;;;;;;5039656;28;20231;-59
2021/12/13 00:50:44;;;;;;;91.53;40.57;;;9.40;99.90;;;;;;5023375;28;20762;-58
2021/12/13 00:53:17;;;;;;;89.67;41.03;;;9.40;99.90;;;;;;5037939;28;21750;-57
2021/12/13 00:55:46;;;;;;;89.13;39.53;;;9.40;99.90;;;;;;5039944;28;20976;-57
2021/12/13 00:58:24;;;;;;;93.63;39.33;;;9.40;99.90;;;;;;5039030;28;20196;-59
2021/12/13 01:00:54;;;;;;;93.93;42.93;;;9.40;99.90;;;;;;5038751;28;20729;-58
2021/12/13 01:03:47;;;;;;;93.07;42.27;;;9.40;99.90;;;;;;5039669;28;20651;-58
2021/12/13 01:06:45;;;;;;;92.27;41.97;;;9.40;99.90;;;;;;5039337;28;20192;-58
2021/12/13 01:09:30;;;;;;;94.13;41.77;;;9.40;99.90;;;;;;5017840;28;20214;-58
2021/12/13 01:12:05;;;;;;;91.67;41.57;;;9.40;99.90;;;;;;5038982;28;20184;-58
2021/12/13 01:14:43;;;;;;;88.80;41.63;;;9.40;99.90;;;;;;5039704;28;20211;-58
2021/12/13 01:20:58;;;;;;;90.03;40.93;;;9.40;99.90;;;;;;5025915;28;20867;-57
2021/12/13 01:23:51;;;;;;;85.47;41.63;;;9.50;99.90;;;;;;5028594;28;20219;-58
2021/12/13 01:26:39;;;;;;;90.00;42.77;;;9.50;99.90;;;;;;5029264;28;20714;-58
2021/12/13 01:29:14;;;;;;;94.97;44.30;;;9.40;99.90;;;;;;5039357;28;20683;-58
2021/12/13 01:32:01;;;;;;;79.37;40.13;;;9.40;99.90;;;;;;5038229;28;20183;-59
2021/12/13 01:34:30;;;;;;;92.67;42.13;;;9.40;99.90;;;;;;5022319;28;20243;-58
2021/12/13 01:37:07;;;;;;;89.27;42.63;;;9.50;99.90;;;;;;5040344;28;20196;-58
2021/12/13 01:39:40;;;;;;;85.13;42.07;;;9.50;99.90;;;;;;5036490;28;20242;-57
2021/12/13 01:42:22;;;;;;;85.13;41.20;;;9.50;99.90;;;;;;5021955;28;20250;-57
2021/12/13 01:44:56;;;;;;;85.13;39.83;;;9.50;99.90;;;;;;5037209;28;20199;-57
2021/12/13 01:47:27;;;;;;;83.73;39.67;;;9.50;99.90;;;;;;5021197;28;20265;-57
2021/12/13 01:50:05;;;;;;;87.33;42.33;;;9.50;99.90;;;;;;5033023;28;20321;-59
2021/12/13 01:52:35;;;;;;;76.93;39.23;;;9.50;99.90;;;;;;5037766;28;20347;-58
2021/12/13 01:55:32;;;;;;;74.90;38.83;;;9.40;99.90;;;;;;5038728;28;20212;-58
2021/12/13 01:58:20;;;;;;;78.87;40.20;;;9.50;99.90;;;;;;5031440;28;20210;-58
2021/12/13 02:01:11;;;;;;;78.03;39.57;;;9.40;99.90;;;;;;5039423;28;20250;-58
2021/12/13 02:03:54;;;;;;;85.27;41.80;;;9.50;99.90;;;;;;5029630;28;20207;-58
2021/12/13 02:06:41;;;;;;;70.63;38.80;;;9.40;99.90;;;;;;5038651;28;20663;-57
2021/12/13 02:09:20;;;;;;;69.33;39.60;;;9.50;99.90;;;;;;5038962;28;20195;-58
2021/12/13 02:11:51;;;;;;;79.17;39.23;;;9.50;99.90;;;;;;5039323;28;20187;-57
2021/12/13 02:14:21;;;;;;;83.43;43.27;;;9.50;99.90;;;;;;5026743;28;20200;-59
2021/12/13 02:17:12;;;;;;;79.80;41.23;;;9.50;99.90;;;;;;5039272;28;20235;-58
2021/12/13 02:19:39;;;;;;;82.73;43.80;;;9.40;99.90;;;;;;5040502;28;20200;-57
2021/12/13 02:22:09;;;;;;;85.17;44.20;;;9.40;99.90;;;;;;5038256;28;20286;-59
2021/12/13 02:24:38;;;;;;;87.77;47.03;;;9.40;99.90;;;;;;5037677;28;20702;-57
2021/12/13 02:27:07;;;;;;;86.73;44.70;;;9.40;99.90;;;;;;5039171;28;20196;-58
2021/12/13 02:29:37;;;;;;;77.43;42.10;;;9.50;99.90;;;;;;5038970;28;20835;-58
2021/12/13 02:32:08;;;;;;;79.87;43.80;;;9.40;99.90;;;;;;5039638;28;20730;-58
2021/12/13 02:34:39;;;;;;;66.33;38.83;;;9.40;99.90;;;;;;5038986;28;20732;-58
2021/12/13 02:37:06;;;;;;;70.60;40.40;;;9.40;99.90;;;;;;5037360;28;20243;-59
2021/12/13 02:39:39;;;;;;;65.40;36.60;;;9.40;99.90;;;;;;5039227;28;20266;-58
2021/12/13 02:42:09;;;;;;;70.23;38.17;;;9.40;99.90;;;;;;5037283;28;20191;-59
2021/12/13 02:45:12;;;;;;;66.07;36.67;;;9.40;99.90;;;;;;5027087;28;20207;-57
2021/12/13 02:47:58;;;;;;;63.43;35.93;;;9.40;99.90;;;;;;5020742;28;20191;-57
2021/12/13 02:50:45;;;;;;;61.30;34.67;;;9.40;99.90;;;;;;5033911;28;20289;-57
2021/12/13 02:53:15;;;;;;;57.93;33.83;;;9.40;99.90;;;;;;5042945;28;20246;-58
2021/12/13 02:55:42;;;;;;;59.10;33.90;;;9.40;99.90;;;;;;5040554;28;20237;-57
2021/12/13 02:58:16;;;;;;;61.13;35.10;;;9.40;99.90;;;;;;5040601;28;21183;-58
2021/12/13 03:00:56;;;;;;;67.33;36.40;;;9.40;99.90;;;;;;5036707;28;20198;-58
2021/12/13 03:03:31;;;;;;;59.97;34.93;;;9.40;99.90;;;;;;5042725;28;20249;-59
2021/12/13 03:06:01;;;;;;;63.17;36.20;;;9.40;99.90;;;;;;5042350;28;20235;-59
2021/12/13 03:08:37;;;;;;;66.17;37.07;;;9.40;99.90;;;;;;5024881;28;20298;-58
2021/12/13 03:11:10;;;;;;;65.27;36.40;;;9.40;99.90;;;;;;5039602;28;20285;-59
2021/12/13 03:13:38;;;;;;;68.27;38.23;;;9.40;99.90;;;;;;5041529;28;20216;-59
2021/12/13 03:16:14;;;;;;;65.93;35.60;;;9.40;99.90;;;;;;5025615;28;20211;-60
2021/12/13 03:19:03;;;;;;;64.67;35.90;;;9.40;99.90;;;;;;5022823;28;20261;-58
2021/12/13 03:21:56;;;;;;;62.37;36.37;;;9.40;99.90;;;;;;5042186;28;20220;-57
2021/12/13 03:24:35;;;;;;;72.10;39.37;;;9.40;99.90;;;;;;5020993;28;20248;-58
2021/12/13 03:27:27;;;;;;;67.13;39.67;;;9.40;99.90;;;;;;5040784;28;20200;-58
2021/12/13 03:30:08;;;;;;;71.33;38.57;;;9.40;99.90;;;;;;5040419;28;20632;-58
2021/12/13 03:33:04;;;;;;;69.57;39.27;;;9.30;99.90;;;;;;5040464;28;20226;-58
2021/12/13 03:35:45;;;;;;;70.93;40.43;;;9.30;99.90;;;;;;5039341;28;20262;-56
2021/12/13 03:38:20;;;;;;;72.80;40.27;;;9.40;99.90;;;;;;5030574;28;20674;-57
2021/12/13 03:40:48;;;;;;;66.23;36.47;;;9.30;99.90;;;;;;5040976;28;20253;-58
2021/12/13 03:43:25;;;;;;;72.60;40.60;;;9.30;99.90;;;;;;5041118;28;20200;-58
2021/12/13 03:45:56;;;;;;;66.57;38.03;;;9.30;99.90;;;;;;5041608;28;20199;-58
2021/12/13 03:48:26;;;;;;;70.23;38.37;;;9.30;99.90;;;;;;5039978;28;20674;-57
2021/12/13 03:50:57;;;;;;;67.23;39.43;;;9.40;99.90;;;;;;5037973;28;20793;-58
2021/12/13 03:53:28;;;;;;;73.83;39.20;;;9.30;99.90;;;;;;5024864;28;20276;-58
2021/12/13 03:56:02;;;;;;;72.67;40.03;;;9.30;99.90;;;;;;5030733;28;20246;-58
2021/12/13 03:58:34;;;;;;;70.30;37.90;;;9.30;99.90;;;;;;5042643;28;20234;-57
2021/12/13 04:01:11;;;;;;;79.07;40.10;;;9.40;99.90;;;;;;5037662;28;20259;-59
2021/12/13 04:03:40;;;;;;;72.60;39.40;;;9.30;99.90;;;;;;5040021;28;20219;-59
2021/12/13 04:06:07;;;;;;;74.33;38.03;;;9.30;99.90;;;;;;5040952;28;20295;-58
2021/12/13 04:08:35;;;;;;;70.40;39.00;;;9.30;99.90;;;;;;5041180;28;20204;-58
2021/12/13 04:11:09;;;;;;;72.60;40.63;;;9.30;99.90;;;;;;5040298;28;20214;-58
2021/12/13 04:13:48;;;;;;;76.23;40.70;;;9.30;99.90;;;;;;5040387;28;20242;-58
2021/12/13 04:16:30;;;;;;;74.53;40.77;;;9.30;99.90;;;;;;5041080;28;20295;-58
2021/12/13 04:21:52;;;;;;;73.73;40.67;;;9.30;99.90;;;;;;5039920;28;20275;-59
2021/12/13 04:24:39;;;;;;;76.10;41.53;;;9.30;99.90;;;;;;5040213;28;20222;-57
2021/12/13 04:27:16;;;;;;;82.90;43.80;;;9.30;99.90;;;;;;5041638;28;20230;-59
2021/12/13 04:29:43;;;;;;;76.60;42.60;;;9.30;99.90;;;;;;5022837;28;20219;-58
2021/12/13 04:32:21;;;;;;;77.07;41.40;;;9.30;99.90;;;;;;5041495;28;20528;-58
2021/12/13 04:34:55;;;;;;;73.43;40.77;;;9.20;99.90;;;;;;5039856;28;20215;-59
2021/12/13 04:37:26;;;;;;;75.43;40.83;;;9.20;99.90;;;;;;5023041;28;20196;-59
2021/12/13 04:40:02;;;;;;;71.93;38.60;;;9.20;99.90;;;;;;5023290;28;20321;-59
2021/12/13 04:42:30;;;;;;;72.80;38.60;;;9.20;99.90;;;;;;5022529;28;20204;-57
2021/12/13 04:45:03;;;;;;;72.17;38.53;;;9.20;99.90;;;;;;5039032;28;20291;-58
2021/12/13 04:47:54;;;;;;;69.20;37.83;;;9.20;99.90;;;;;;5039027;28;20200;-58
2021/12/13 04:50:50;;;;;;;75.97;37.60;;;9.20;99.90;;;;;;5026741;28;20219;-59
2021/12/13 04:53:24;;;;;;;71.53;37.27;;;9.20;99.90;;;;;;5041926;28;20249;-59
2021/12/13 04:55:53;;;;;;;75.00;37.77;;;9.20;99.90;;;;;;5040001;28;21217;-59
2021/12/13 04:58:21;;;;;;;72.60;38.43;;;9.20;99.90;;;;;;5038238;28;20212;-59
2021/12/13 05:00:55;;;;;;;73.03;37.03;;;9.20;99.90;;;;;;5040595;28;21006;-59
2021/12/13 05:03:27;;;;;;;63.83;35.87;;;9.10;99.90;;;;;;5017895;28;20229;-58
2021/12/13 05:05:57;;;;;;;63.47;35.97;;;9.10;99.90;;;;;;5027427;28;20266;-58
2021/12/13 05:08:26;;;;;;;67.17;35.67;;;9.10;99.90;;;;;;5027930;28;20195;-58
2021/12/13 05:10:53;;;;;;;62.47;35.10;;;9.10;99.90;;;;;;5023637;28;20192;-58
2021/12/13 05:13:24;;;;;;;60.50;34.50;;;9.10;99.90;;;;;;5041903;28;20247;-58
2021/12/13 05:16:10;;;;;;;59.17;33.33;;;9.10;99.90;;;;;;5038338;28;20282;-58
2021/12/13 05:18:49;;;;;;;60.97;34.60;;;9.10;99.90;;;;;;5037837;28;20192;-58
2021/12/13 05:21:25;;;;;;;60.50;33.63;;;9.10;99.90;;;;;;5040443;28;20196;-57
2021/12/13 05:23:56;;;;;;;64.40;33.37;;;9.10;99.90;;;;;;5040924;28;20199;-58
2021/12/13 05:26:37;;;;;;;54.40;32.83;;;9.00;99.90;;;;;;5040108;28;20230;-59
2021/12/13 05:29:19;;;;;;;54.60;30.93;;;9.00;99.90;;;;;;5023619;28;20191;-59
2021/12/13 05:32:00;;;;;;;50.50;28.60;;;9.00;99.90;;;;;;5040030;28;20275;-59
2021/12/13 05:34:40;;;;;;;54.80;29.03;;;9.00;99.90;;;;;;5038903;28;20195;-58
2021/12/13 05:37:08;;;;;;;47.43;28.90;;;9.00;99.90;;;;;;5038615;28;20565;-58
2021/12/13 05:39:37;;;;;;;50.70;28.20;;;9.00;99.90;;;;;;5041095;28;20247;-58
2021/12/13 05:42:10;;;;;;;47.47;26.50;;;9.00;99.90;;;;;;5039758;28;20233;-59
2021/12/13 05:44:46;;;;;;;45.97;26.93;;;9.00;99.90;;;;;;5039736;28;20208;-59
2021/12/13 05:47:23;;;;;;;43.83;25.83;;;9.00;99.90;;;;;;5040349;28;20599;-59
2021/12/13 05:49:52;;;;;;;44.00;27.20;;;9.00;99.90;;;;;;5039819;28;20183;-59
2021/12/13 05:52:33;;;;;;;48.03;31.30;;;9.00;99.90;;;;;;5040171;28;20262;-59
2021/12/13 05:55:10;;;;;;;42.83;26.37;;;9.00;99.90;;;;;;5037669;28;20231;-59
2021/12/13 05:57:49;;;;;;;43.47;26.27;;;9.00;99.90;;;;;;5036692;28;20269;-59
2021/12/13 06:00:19;;;;;;;39.17;25.47;;;9.00;99.90;;;;;;5039042;28;20187;-59
2021/12/13 06:03:07;;;;;;;36.10;22.73;;;9.00;99.90;;;;;;5022065;28;21619;-59
2021/12/13 06:05:41;;;;;;;37.53;24.90;;;9.10;99.90;;;;;;5038802;28;20235;-59
2021/12/13 06:08:27;;;;;;;35.27;23.67;;;9.00;99.90;;;;;;5035936;28;20184;-59
2021/12/13 06:11:00;;;;;;;36.37;22.47;;;9.00;99.90;;;;;;5036989;28;20231;-59
2021/12/13 06:13:42;;;;;;;36.33;25.63;;;9.00;99.90;;;;;;5038364;28;20273;-59
2021/12/13 06:16:33;;;;;;;31.90;22.40;;;9.00;99.90;;;;;;5021139;28;20243;-59
2021/12/13 06:19:10;;;;;;;36.03;22.37;;;9.00;99.90;;;;;;5030014;28;20207;-59
2021/12/13 06:21:40;;;;;;;31.07;21.07;;;9.00;99.90;;;;;;5038384;28;20216;-59
2021/12/13 06:24:09;;;;;;;28.83;20.20;;;9.00;99.90;;;;;;5038493;28;20208;-59
2021/12/13 06:26:38;;;;;;;26.83;19.07;;;9.00;99.90;;;;;;5038360;28;20597;-60
2021/12/13 06:29:08;;;;;;;29.17;18.53;;;9.00;99.90;;;;;;5036937;28;20199;-59
2021/12/13 06:31:45;;;;;;;24.83;17.87;;;9.00;99.90;;;;;;5037430;28;20223;-59
2021/12/13 06:34:15;;;;;;;31.83;18.10;;;9.00;99.90;;;;;;5036935;28;20272;-59
2021/12/13 06:36:46;;;;;;;24.40;17.97;;;9.00;33.90;;;;;;5038634;28;20270;-58
2021/12/13 06:39:25;;;;;;;25.97;18.37;;;8.90;1.00;;;;;;5026902;28;20231;-58
2021/12/13 06:41:59;;;;;;;28.13;17.90;;;8.90;1.00;;;;;;5039065;28;20249;-58
2021/12/13 06:44:46;;;;;;;28.30;18.07;;;9.00;1.00;;;;;;5019779;28;20206;-58
2021/12/13 06:47:21;;;;;;;23.37;17.23;;;9.00;1.00;;;;;;5037833;28;20192;-59
2021/12/13 06:49:52;;;;;;;29.33;19.77;;;9.00;1.00;;;;;;5023723;28;20585;-59
2021/12/13 06:52:32;;;;;;;26.03;19.73;;;9.00;1.00;;;;;;5033632;28;20740;-59
2021/12/13 06:55:09;;;;;;;29.07;20.10;;;8.90;1.00;;;;;;5028800;28;20213;-58
2021/12/13 06:57:48;;;;;;;27.83;19.50;;;8.90;99.90;;;;;;5026648;28;20301;-58
2021/12/13 07:00:15;;;;;;;24.43;17.90;;;8.90;99.90;;;;;;5044664;28;20275;-58
2021/12/13 07:02:48;;;;;;;25.17;17.93;;;8.90;99.90;;;;;;5043183;28;20286;-59
2021/12/13 07:05:22;;;;;;;23.27;18.50;;;8.90;99.90;;;;;;5026326;28;20223;-59
2021/12/13 07:08:20;;;;;;;26.30;18.77;;;8.90;14.00;;;;;;5046443;28;20191;-59
2021/12/13 07:10:55;;;;;;;24.73;18.20;;;8.90;1.00;;;;;;5048298;28;20993;-59
2021/12/13 07:13:48;;;;;;;25.07;16.87;;;8.90;1.00;;;;;;5032574;28;20198;-58
2021/12/13 07:16:16;;;;;;;21.93;17.00;;;8.90;1.00;;;;;;5048562;28;20235;-58
2021/12/13 07:18:49;;;;;;;26.57;17.77;;;8.80;99.90;;;;;;5046867;28;20285;-60
2021/12/13 07:21:21;;;;;;;25.43;16.83;;;8.80;99.90;;;;;;5050196;28;20253;-58
2021/12/13 07:23:56;;;;;;;25.20;17.20;;;8.80;99.90;;;;;;5026833;28;20188;-59
2021/12/13 07:26:33;;;;;;;19.87;16.30;;;8.80;1.00;;;;;;5048076;28;20207;-58
2021/12/13 07:29:02;;;;;;;24.57;16.93;;;8.90;1.00;;;;;;5048660;28;20244;-59
2021/12/13 07:31:29;;;;;;;24.77;17.33;;;8.90;1.00;;;;;;5029649;28;20285;-60
2021/12/13 07:34:15;;;;;;;27.23;17.43;;;8.90;1.00;;;;;;5048363;28;20208;-59
2021/12/13 07:36:52;;;;;;;24.27;16.87;;;8.90;1.00;;;;;;5048829;28;20199;-59
2021/12/13 07:39:23;;;;;;;24.00;16.00;;;8.90;1.00;;;;;;5051453;28;20746;-59
2021/12/13 07:41:55;;;;;;;22.73;16.17;;;8.80;1.00;;;;;;5034494;28;20199;-59
2021/12/13 07:44:41;;;;;;;25.40;16.93;;;8.80;99.90;;;;;;5029727;28;20195;-59
2021/12/13 07:47:19;;;;;;;21.63;15.93;;;8.80;99.90;;;;;;5051336;28;20198;-59
2021/12/13 07:49:56;;;;;;;21.53;15.90;;;8.80;1.00;;;;;;5050770;28;20192;-58
2021/12/13 07:52:30;;;;;;;22.37;16.23;;;8.90;1.00;;;;;;5026172;28;20757;-59
2021/12/13 07:55:16;;;;;;;24.87;16.00;;;8.90;1.00;;;;;;5030814;28;20219;-59
2021/12/13 07:57:44;;;;;;;20.77;15.57;;;8.90;99.90;;;;;;5048581;28;20195;-60
2021/12/13 08:00:15;;;;;;;24.00;15.53;;;8.90;99.90;;;;;;5047114;28;20212;-59
2021/12/13 08:03:06;;;;;;;22.93;15.47;;;8.90;99.90;;;;;;5046684;28;20278;-59
2021/12/13 08:05:44;;;;;;;20.80;15.63;;;8.90;1.00;;;;;;5032134;28;20214;-59
2021/12/13 08:08:19;;;;;;;21.33;14.50;;;8.90;1.00;;;;;;5035442;28;20199;-59
2021/12/13 08:10:48;;;;;;;19.77;15.10;;;8.90;1.00;;;;;;5052260;28;20305;-59
2021/12/13 08:13:22;;;;;;;20.70;15.60;;;8.80;1.00;;;;;;5049015;28;20222;-59
2021/12/13 08:15:57;;;;;;;23.87;15.67;;;8.90;1.00;;;;;;5050272;28;20652;-59
2021/12/13 08:18:41;;;;;;;19.80;15.40;;;8.90;1.00;;;;;;5046770;28;20202;-59
2021/12/13 08:21:25;;;;;;;19.87;13.53;;;8.90;1.00;;;;;;5048125;28;20202;-59
2021/12/13 08:23:58;;;;;;;22.37;15.07;;;9.00;1.00;;;;;;5048785;28;20187;-59
2021/12/13 08:26:34;;;;;;;21.10;15.23;;;9.00;1.00;;;;;;5028926;28;20287;-59
2021/12/13 08:29:08;;;;;;;22.70;15.47;;;9.00;1.00;;;;;;5049116;28;20700;-59
2021/12/13 08:31:39;;;;;;;22.73;15.23;;;9.00;1.00;;;;;;5050365;28;20240;-59
2021/12/13 08:34:22;;;;;;;18.17;14.70;;;9.00;99.90;;;;;;5029211;28;20191;-59
2021/12/13 08:36:50;;;;;;;21.77;14.27;;;9.00;1.00;;;;;;5022673;28;20227;-59
2021/12/13 08:39:19;;;;;;;19.70;13.83;;;9.00;1.00;;;;;;5045390;28;20259;-59
2021/12/13 08:41:53;;;;;;;18.13;13.73;;;9.00;99.90;;;;;;5042589;28;20203;-59
2021/12/13 08:44:32;;;;;;;23.13;14.07;;;9.00;99.90;;;;;;5028694;28;20665;-59
2021/12/13 08:47:01;;;;;;;17.40;13.13;;;9.00;48.80;;;;;;5031890;28;20692;-59
2021/12/13 08:49:37;;;;;;;23.00;13.83;;;9.00;4.30;;;;;;5029649;28;20200;-59
2021/12/13 08:52:27;;;;;;;18.73;13.90;;;9.00;1.00;;;;;;5050893;28;20195;-59
2021/12/13 08:54:57;;;;;;;17.87;14.70;;;9.10;1.00;;;;;;5050880;28;20282;-59
2021/12/13 08:57:54;;;;;;;19.40;13.50;;;9.10;1.00;;;;;;5048697;28;20272;-59
2021/12/13 09:00:51;;;;;;;24.87;14.00;;;9.00;1.00;;;;;;5049103;28;20253;-59
2021/12/13 09:03:35;;;;;;;18.37;13.53;;;9.10;99.90;;;;;;5047436;28;20666;-59
2021/12/13 09:06:12;;;;;;;18.43;13.43;;;9.10;99.90;;;;;;5047019;28;20230;-59
2021/12/13 09:08:48;;;;;;;21.10;14.33;;;9.20;26.70;;;;;;5031186;28;20741;-59
2021/12/13 09:11:34;;;;;;;17.37;13.77;;;9.10;1.00;;;;;;5032803;28;20230;-59
2021/12/13 09:14:04;;;;;;;19.37;13.30;;;9.10;1.00;;;;;;5014540;28;20637;-59
2021/12/13 09:17:07;;;;;;;17.47;12.93;;;9.20;1.00;;;;;;5015540;28;20357;-59
2021/12/13 09:19:53;;;;;;;17.60;13.80;;;9.20;1.00;;;;;;5049227;28;20191;-59
2021/12/13 09:22:26;;;;;;;20.60;13.67;;;9.20;99.90;;;;;;5046859;28;20666;-58
2021/12/13 09:25:00;;;;;;;16.90;13.07;;;9.20;99.90;;;;;;5047311;28;20222;-59
2021/12/13 09:27:52;;;;;;;19.67;13.93;;;9.20;99.90;;;;;;5034400;28;20302;-58
2021/12/13 09:30:36;;;;;;;17.53;12.57;;;9.20;99.90;;;;;;5050228;28;20232;-59
2021/12/13 09:33:15;;;;;;;17.97;12.77;;;9.30;1.00;;;;;;5032948;28;20195;-59
2021/12/13 09:35:51;;;;;;;15.93;11.93;;;9.30;1.00;;;;;;5050526;28;20231;-59
2021/12/13 09:38:47;;;;;;;15.53;11.93;;;9.30;1.00;;;;;;5044948;28;21568;-59
2021/12/13 09:41:41;;;;;;;14.33;11.97;;;9.30;1.00;;;;;;4987825;28;20205;-59
2021/12/13 09:44:08;;;;;;;15.50;12.10;;;9.30;1.00;;;;;;5041679;28;20278;-59
2021/12/13 09:46:39;;;;;;;16.73;11.57;;;9.30;1.00;;;;;;5030359;28;20237;-59
2021/12/13 09:49:12;;;;;;;15.87;12.50;;;9.30;1.00;;;;;;5030614;28;20294;-58
2021/12/13 09:51:47;;;;;;;14.87;11.80;;;9.30;1.00;;;;;;5048750;28;20746;-59
2021/12/13 09:54:19;;;;;;;13.93;11.33;;;9.30;1.00;;;;;;5047608;28;20198;-59
2021/12/13 09:56:49;;;;;;;14.33;11.40;;;9.30;1.00;;;;;;5044672;28;20235;-58
2021/12/13 09:59:25;;;;;;;17.43;12.23;;;9.30;1.00;;;;;;5044635;28;20200;-58
2021/12/13 10:01:55;;;;;;;16.37;11.60;;;9.30;1.00;;;;;;5047065;28;20220;-59
2021/12/13 10:04:34;;;;;;;15.57;12.57;;;9.30;1.00;;;;;;5046545;28;20207;-59
2021/12/13 10:07:12;;;;;;;17.77;12.43;;;9.40;1.00;;;;;;5044783;28;20844;-58
2021/12/13 10:09:47;;;;;;;17.23;11.70;;;9.40;99.90;;;;;;5046687;28;20340;-58
2021/12/13 10:12:22;;;;;;;17.00;12.23;;;9.40;99.90;;;;;;5048111;28;20202;-59
2021/12/13 10:14:55;;;;;;;19.47;12.03;;;9.40;99.90;;;;;;5047849;28;20607;-58
2021/12/13 10:17:25;;;;;;;15.77;12.03;;;9.40;99.90;;;;;;5047888;28;20269;-58
2021/12/13 10:19:57;;;;;;;16.73;12.43;;;9.40;99.90;;;;;;5047735;28;20211;-58
2021/12/13 10:22:27;;;;;;;17.53;12.97;;;9.40;99.90;;;;;;5047275;28;20191;-58
2021/12/13 10:25:05;;;;;;;15.43;11.53;;;9.40;99.90;;;;;;5046961;28;20268;-58
2021/12/13 10:27:32;;;;;;;16.73;11.33;;;9.40;99.90;;;;;;5044496;28;20683;-58
2021/12/13 10:30:05;;;;;;;18.73;13.83;;;9.50;99.90;;;;;;5045461;28;20282;-58
2021/12/13 10:32:36;;;;;;;14.50;11.23;;;9.50;94.80;;;;;;5049059;28;20203;-58
2021/12/13 10:35:13;;;;;;;30.70;23.33;;;9.50;74.40;;;;;;5044081;28;20628;-58
2021/12/13 10:37:44;;;;;;;14.47;11.40;;;9.50;1.00;;;;;;5041546;28;20608;-58
2021/12/13 10:40:23;;;;;;;15.50;11.93;;;9.50;1.00;;;;;;5044825;28;20235;-59
2021/12/13 10:42:55;;;;;;;15.47;11.20;;;9.50;1.00;;;;;;5028061;28;20195;-58
2021/12/13 10:45:27;;;;;;;12.07;10.70;;;9.50;1.00;;;;;;5029840;28;20219;-59
2021/12/13 10:48:00;;;;;;;11.67;10.30;;;9.50;1.00;;;;;;5024210;28;20191;-58
2021/12/13 10:50:50;;;;;;;13.10;9.77;;;9.50;1.00;;;;;;5027898;28;20282;-58
2021/12/13 10:53:22;;;;;;;15.30;10.77;;;9.50;1.00;;;;;;5046650;28;20291;-58
2021/12/13 10:55:54;;;;;;;12.97;10.53;;;9.50;1.00;;;;;;5047433;28;20274;-58
2021/12/13 10:58:24;;;;;;;11.60;10.37;;;9.50;1.00;;;;;;5042518;28;20199;-59
2021/12/13 11:01:08;;;;;;;13.80;10.67;;;9.50;1.00;;;;;;5042087;28;21261;-58
2021/12/13 11:03:37;;;;;;;13.50;10.43;;;9.50;1.00;;;;;;5042799;28;20214;-59
2021/12/13 11:06:07;;;;;;;12.47;10.93;;;9.50;1.00;;;;;;5044863;28;21656;-61
2021/12/13 11:08:41;;;;;;;15.03;10.83;;;9.50;1.00;;;;;;5027589;28;20273;-58
2021/12/13 11:11:33;;;;;;;13.17;10.40;;;9.50;1.00;;;;;;5024891;28;20191;-58
2021/12/13 11:14:05;;;;;;;14.60;11.07;;;9.60;1.00;;;;;;5037311;28;20228;-58
2021/12/13 11:16:38;;;;;;;16.80;10.13;;;9.60;1.00;;;;;;5053861;28;20282;-60
2021/12/13 11:19:09;;;;;;;13.73;10.60;;;9.60;1.00;;;;;;5053605;28;20200;-60
2021/12/13 11:21:37;;;;;;;15.33;11.70;;;9.60;1.00;;;;;;5032523;28;20616;-59
2021/12/13 11:24:12;;;;;;;13.90;10.83;;;9.60;1.00;;;;;;5049312;28;20196;-58
2021/12/13 11:26:43;;;;;;;13.03;9.83;;;9.60;1.00;;;;;;5052664;28;20247;-59
2021/12/13 11:29:14;;;;;;;13.57;9.20;;;9.60;1.00;;;;;;5032843;28;20207;-59
2021/12/13 11:31:47;;;;;;;16.27;10.67;;;9.60;1.00;;;;;;5031840;28;20191;-60
2021/12/13 11:35:02;;;;;;;10.20;9.03;;;9.60;1.00;;;;;;5052714;28;20383;-59
2021/12/13 11:38:07;;;;;;;10.30;9.13;;;9.60;1.00;;;;;;5022466;28;20289;-59
2021/12/13 11:40:59;;;;;;;13.70;9.60;;;9.60;1.00;;;;;;5030369;28;20251;-59
2021/12/13 11:44:03;;;;;;;14.80;9.87;;;9.60;1.00;;;;;;5031204;28;20216;-59
2021/12/13 11:47:08;;;;;;;14.20;9.70;;;9.60;1.00;;;;;;5030220;28;20737;-59
2021/12/13 11:50:11;;;;;;;10.33;8.93;;;9.60;1.00;;;;;;5031614;28;20709;-59
2021/12/13 11:53:15;;;;;;;13.10;9.37;;;9.60;1.00;;;;;;4983896;28;20203;-58
2021/12/13 11:56:20;;;;;;;11.23;9.70;;;9.60;1.00;;;;;;5053059;28;20202;-60
2021/12/13 11:59:25;;;;;;;12.17;8.80;;;9.60;1.00;;;;;;5025530;28;20213;-60
2021/12/13 12:02:06;;;;;;;13.93;8.97;;;9.60;1.00;;;;;;5049686;28;20200;-60
2021/12/13 12:05:09;;;;;;;10.07;8.53;;;9.60;1.00;;;;;;5031425;28;21587;-59
2021/12/13 12:08:25;;;;;;;11.20;8.70;;;9.60;1.00;;;;;;5045867;28;20281;-59
2021/12/13 12:11:01;;;;;;;10.57;8.03;;;9.60;1.00;;;;;;5012097;28;20207;-60
2021/12/13 12:13:51;;;;;;;8.50;7.60;;;9.60;1.00;;;;;;5043663;28;20875;-59
2021/12/13 12:16:22;;;;;;;10.07;7.90;;;9.60;1.00;;;;;;5048632;28;20249;-59
2021/12/13 12:18:52;;;;;;;9.47;7.37;;;9.60;1.00;;;;;;5049042;28;20233;-60
2021/12/13 12:21:31;;;;;;;9.30;7.97;;;9.60;1.00;;;;;;5050165;28;20223;-60
2021/12/13 12:24:00;;;;;;;13.03;9.23;;;9.60;1.00;;;;;;5031772;28;20231;-60
2021/12/13 12:26:28;;;;;;;8.70;7.77;;;9.60;1.00;;;;;;5046300;28;20356;-60
2021/12/13 12:28:58;;;;;;;8.47;7.57;;;9.60;1.00;;;;;;5012783;28;20223;-60
2021/12/13 12:31:34;;;;;;;9.53;8.37;;;9.60;1.00;;;;;;5027059;28;20193;-60
2021/12/13 12:34:03;;;;;;;10.17;8.43;;;9.60;1.00;;;;;;5025455;28;20195;-60
2021/12/13 12:36:58;;;;;;;11.63;8.13;;;9.60;1.00;;;;;;5046650;28;20227;-60
2021/12/13 12:39:56;;;;;;;10.87;8.40;;;9.60;1.00;;;;;;5036524;28;20226;-60
2021/12/13 12:42:43;;;;;;;10.90;7.43;;;9.70;1.00;;;;;;5048745;28;21426;-60
2021/12/13 12:45:31;;;;;;;10.60;8.23;;;9.60;1.00;;;;;;5050521;28;20286;-59
2021/12/13 12:48:03;;;;;;;11.80;8.40;;;9.60;1.00;;;;;;5048738;28;20674;-59
2021/12/13 12:50:30;;;;;;;10.53;8.83;;;9.60;1.00;;;;;;5046988;28;20738;-59
2021/12/13 12:53:23;;;;;;;10.33;8.17;;;9.60;1.00;;;;;;5039756;28;22664;-59
2021/12/13 12:55:55;;;;;;;8.60;7.73;;;9.60;1.00;;;;;;5045259;28;20232;-59
2021/12/13 12:58:31;;;;;;;9.43;8.33;;;9.60;1.00;;;;;;5015088;28;20297;-59
2021/12/13 13:01:01;;;;;;;9.90;8.40;;;9.60;99.90;;;;;;5039180;28;20199;-58
2021/12/13 13:03:32;;;;;;;11.00;8.30;;;9.60;1.00;;;;;;5050643;28;20220;-59
2021/12/13 13:06:10;;;;;;;12.30;7.90;;;9.60;1.00;;;;;;5049632;28;20227;-58
2021/12/13 13:08:41;;;;;;;10.53;9.07;;;9.60;1.00;;;;;;5041784;28;20199;-58
2021/12/13 13:11:30;;;;;;;9.70;8.37;;;9.60;1.00;;;;;;5029629;28;20208;-58
2021/12/13 13:14:03;;;;;;;10.30;8.23;;;9.50;1.00;;;;;;5047055;28;20199;-59
2021/12/13 13:16:35;;;;;;;9.57;8.30;;;9.50;1.00;;;;;;5050401;28;20203;-59
2021/12/13 13:19:05;;;;;;;10.43;8.83;;;9.50;1.00;;;;;;5046489;28;20642;-59
2021/12/13 13:21:42;;;;;;;12.80;9.27;;;9.60;1.00;;;;;;5044748;28;20203;-59
2021/12/13 13:24:11;;;;;;;13.87;8.43;;;9.60;1.00;;;;;;5029755;28;20920;-60
2021/12/13 13:26:42;;;;;;;11.17;7.90;;;9.60;1.00;;;;;;5031380;28;20203;-59
2021/12/13 13:29:14;;;;;;;11.40;8.90;;;9.70;1.00;;;;;;5044845;28;20258;-59
2021/12/13 13:31:53;;;;;;;14.70;10.00;;;9.70;1.00;;;;;;5017958;28;20265;-59
2021/12/13 13:34:32;;;;;;;12.53;8.40;;;9.60;1.00;;;;;;5029396;28;20192;-59
2021/12/13 13:37:16;;;;;;;8.97;7.97;;;9.70;1.00;;;;;;5047559;28;20747;-60
2021/12/13 13:39:50;;;;;;;10.23;9.10;;;9.70;1.00;;;;;;5049718;28;20316;-59
2021/12/13 13:42:19;;;;;;;11.10;9.47;;;9.70;1.00;;;;;;5050816;28;20198;-59